createdAt,value
2023-04-20T00:00:34.337Z,7.00
2023-04-20T00:03:39.847Z,6.57
2023-04-20T00:06:49.772Z,6.93
2023-04-20T00:09:54.843Z,6.88
2023-04-20T00:13:00.390Z,6.53
2023-04-20T00:16:05.695Z,7.00
2023-04-20T00:19:11.405Z,6.72
2023-04-20T00:22:19.519Z,6.70
2023-04-20T00:25:25.159Z,6.88
2023-04-20T00:28:30.267Z,7.07
2023-04-20T00:31:36.155Z,7.45
2023-04-20T00:34:41.483Z,7.03
2023-04-20T00:37:49.612Z,6.22
2023-04-20T00:40:55.064Z,7.07
2023-04-20T00:44:02.156Z,6.90
2023-04-20T00:47:07.422Z,6.65
2023-04-20T00:50:14.180Z,6.30
2023-04-20T00:53:22.323Z,6.45
2023-04-20T00:56:28.017Z,6.25
2023-04-20T00:59:33.359Z,6.40
2023-04-20T01:02:39.053Z,6.72
2023-04-20T01:05:46.845Z,6.63
2023-04-20T01:08:55.439Z,6.53
2023-04-20T01:15:06.639Z,5.70
2023-04-20T01:18:12.114Z,6.40
2023-04-20T01:21:18.652Z,6.32
2023-04-20T01:24:26.345Z,6.43
2023-04-20T01:27:32.009Z,6.35
2023-04-20T01:30:40.850Z,6.55
2023-04-20T01:33:46.579Z,7.53
2023-04-20T01:36:51.984Z,7.05
2023-04-20T01:40:00.377Z,6.22
2023-04-20T01:43:06.034Z,6.47
2023-04-20T01:46:11.583Z,6.80
2023-04-20T01:49:18.682Z,6.32
2023-04-20T01:52:24.032Z,6.60
2023-04-20T01:55:32.315Z,7.00
2023-04-20T01:58:37.709Z,7.50
2023-04-20T02:01:43.206Z,6.43
2023-04-20T02:04:48.971Z,8.35
2023-04-20T02:07:54.508Z,7.70
2023-04-20T02:11:02.584Z,7.85
2023-04-20T02:14:07.982Z,7.47
2023-04-20T02:17:14.921Z,7.35
2023-04-20T02:20:20.703Z,8.13
2023-04-20T02:23:26.625Z,7.15
2023-04-20T02:26:36.410Z,7.60
2023-04-20T02:29:41.998Z,7.43
2023-04-20T02:32:47.613Z,8.52
2023-04-20T02:35:54.396Z,8.70
2023-04-20T02:38:59.624Z,7.65
2023-04-20T02:42:08.330Z,7.95
2023-04-20T02:45:14.947Z,7.40
2023-04-20T02:48:23.478Z,8.23
2023-04-20T02:51:29.210Z,7.93
2023-04-20T02:54:35.055Z,8.07
2023-04-20T02:57:43.384Z,7.47
2023-04-20T03:00:48.968Z,8.52
2023-04-20T03:03:54.619Z,7.78
2023-04-20T03:07:01.645Z,7.65
2023-04-20T03:10:12.305Z,7.75
2023-04-20T03:13:33.728Z,7.38
2023-04-20T03:16:42.202Z,8.13
2023-04-20T03:19:48.663Z,7.75
2023-04-20T03:22:54.440Z,9.35
2023-04-20T03:26:02.452Z,7.57
2023-04-20T03:29:30.821Z,8.38
2023-04-20T03:32:36.452Z,8.23
2023-04-20T03:35:43.653Z,8.15
2023-04-20T03:38:48.810Z,7.88
2023-04-20T03:41:54.417Z,8.75
2023-04-20T03:45:03.005Z,8.98
2023-04-20T03:48:09.616Z,7.57
2023-04-20T03:51:14.897Z,7.68
2023-04-20T03:54:20.122Z,8.20
2023-04-20T03:57:25.750Z,7.72
2023-04-20T04:00:34.494Z,8.15
2023-04-20T04:03:46.303Z,8.15
2023-04-20T04:06:52.032Z,7.30
2023-04-20T04:09:57.760Z,9.25
2023-04-20T04:13:03.164Z,8.50
2023-04-20T04:16:11.829Z,8.27
2023-04-20T04:19:17.372Z,8.60
2023-04-20T04:22:22.712Z,8.60
2023-04-20T04:25:47.802Z,8.90
2023-04-20T04:28:54.545Z,7.65
2023-04-20T04:32:04.361Z,9.07
2023-04-20T04:35:11.011Z,8.43
2023-04-20T04:38:17.005Z,8.90
2023-04-20T04:41:25.960Z,9.55
2023-04-20T04:44:37.795Z,9.13
2023-04-20T04:47:47.118Z,8.98
2023-04-20T04:50:52.546Z,9.18
2023-04-20T04:53:57.992Z,8.98
2023-04-20T04:57:03.320Z,8.88
2023-04-20T05:00:12.829Z,8.18
2023-04-20T05:03:21.125Z,9.05
2023-04-20T05:06:26.621Z,8.23
2023-04-20T05:09:33.907Z,8.75
2023-04-20T05:12:39.419Z,9.77
2023-04-20T05:15:44.780Z,9.13
2023-04-20T05:18:52.590Z,9.43
2023-04-20T05:21:57.919Z,8.52
2023-04-20T05:25:03.471Z,8.55
2023-04-20T05:28:09.490Z,8.75
2023-04-20T05:31:14.591Z,7.75
2023-04-20T05:34:22.608Z,7.72
2023-04-20T05:37:27.777Z,8.60
2023-04-20T05:40:34.773Z,7.40
2023-04-20T05:43:40.385Z,7.68
2023-04-20T05:46:46.047Z,7.97
2023-04-20T05:49:54.061Z,8.25
2023-04-20T05:53:00.076Z,7.47
2023-04-20T05:56:05.641Z,8.02
2023-04-20T05:59:11.606Z,8.10
2023-04-20T06:02:16.834Z,7.63
2023-04-20T06:05:25.000Z,7.70
2023-04-20T06:08:30.347Z,7.70
2023-04-20T06:11:35.827Z,7.47
2023-04-20T06:14:41.353Z,6.95
2023-04-20T06:17:46.852Z,6.40
2023-04-20T06:20:54.770Z,6.63
2023-04-20T06:24:00.137Z,7.07
2023-04-20T06:27:05.811Z,6.50
2023-04-20T06:30:12.040Z,6.88
2023-04-20T06:33:17.794Z,7.35
2023-04-20T06:36:26.231Z,6.15
2023-04-20T06:39:31.394Z,6.93
2023-04-20T06:42:36.947Z,6.03
2023-04-20T06:45:42.443Z,6.80
2023-04-20T06:48:47.648Z,5.95
2023-04-20T06:51:55.345Z,6.55
2023-04-20T06:55:01.655Z,6.50
2023-04-20T06:58:09.374Z,5.68
2023-04-20T07:01:14.629Z,6.00
2023-04-20T07:04:20.450Z,5.55
2023-04-20T07:07:28.508Z,6.25
2023-04-20T07:10:34.147Z,6.47
2023-04-20T07:13:39.297Z,6.22
2023-04-20T07:16:44.991Z,5.93
2023-04-20T07:19:51.082Z,5.45
2023-04-20T07:22:59.367Z,6.80
2023-04-20T07:26:04.947Z,5.90
2023-04-20T07:29:10.445Z,5.97
2023-04-20T07:32:15.915Z,5.13
2023-04-20T07:35:21.190Z,5.63
2023-04-20T07:38:29.094Z,5.60
2023-04-20T07:41:34.540Z,6.05
2023-04-20T07:44:40.020Z,5.43
2023-04-20T07:47:47.853Z,5.82
2023-04-20T07:50:53.024Z,5.20
2023-04-20T07:54:01.130Z,5.20
2023-04-20T07:57:06.922Z,5.68
2023-04-20T08:00:13.810Z,4.47
2023-04-20T08:03:19.310Z,4.97
2023-04-20T08:06:25.326Z,5.00
2023-04-20T08:09:33.141Z,4.70
2023-04-20T08:12:38.559Z,4.90
2023-04-20T08:15:43.975Z,4.57
2023-04-20T08:18:49.501Z,4.80
2023-04-20T08:21:55.122Z,4.68
2023-04-20T08:25:03.173Z,4.55
2023-04-20T08:28:24.281Z,4.80
2023-04-20T08:31:38.331Z,4.72
2023-04-20T08:34:43.731Z,5.10
2023-04-20T08:37:49.061Z,5.55
2023-04-20T08:40:57.081Z,4.63
2023-04-20T08:44:02.628Z,5.00
2023-04-20T08:47:08.210Z,5.10
2023-04-20T08:50:14.270Z,5.30
2023-04-20T08:53:20.074Z,4.85
2023-04-20T08:56:38.362Z,4.93
2023-04-20T08:59:43.930Z,5.00
2023-04-20T09:02:53.283Z,5.35
2023-04-20T09:05:59.471Z,4.97
2023-04-20T09:09:04.662Z,5.18
2023-04-20T09:12:12.830Z,4.75
2023-04-20T09:18:24.237Z,4.55
2023-04-20T09:21:31.650Z,4.43
2023-04-20T09:24:37.651Z,4.95
2023-04-20T09:27:45.763Z,4.60
2023-04-20T09:30:52.282Z,5.47
2023-04-20T09:34:01.528Z,4.80
2023-04-20T09:37:07.442Z,4.68
2023-04-20T09:40:13.367Z,4.97
2023-04-20T09:43:26.303Z,5.38
2023-04-20T09:46:32.816Z,5.25
2023-04-20T09:49:38.873Z,4.68
2023-04-20T09:52:46.086Z,4.85
2023-04-20T09:55:52.294Z,4.60
2023-04-20T09:59:00.963Z,4.28
2023-04-20T10:02:11.026Z,4.75
2023-04-20T10:05:17.130Z,4.68
2023-04-20T10:08:24.663Z,4.53
2023-04-20T10:11:37.411Z,5.07
2023-04-20T10:14:58.245Z,4.70
2023-04-20T10:18:03.722Z,4.40
2023-04-20T10:21:10.200Z,4.88
2023-04-20T10:24:17.001Z,4.60
2023-04-20T10:27:24.231Z,4.57
2023-04-20T10:30:32.537Z,3.80
2023-04-20T10:33:37.956Z,4.75
2023-04-20T10:36:43.203Z,4.40
2023-04-20T10:39:49.098Z,3.97
2023-04-20T10:42:54.435Z,4.38
2023-04-20T10:46:02.427Z,4.47
2023-04-20T10:49:07.604Z,4.53
2023-04-20T10:52:13.071Z,4.45
2023-04-20T10:55:22.208Z,4.35
2023-04-20T10:58:28.124Z,4.57
2023-04-20T11:01:36.800Z,4.95
2023-04-20T11:04:42.672Z,5.00
2023-04-20T11:07:51.614Z,4.47
2023-04-20T11:10:56.976Z,5.10
2023-04-20T11:14:09.552Z,4.70
2023-04-20T11:17:17.768Z,5.45
2023-04-20T11:20:23.274Z,5.25
2023-04-20T11:23:28.828Z,4.70
2023-04-20T11:26:37.793Z,4.53
2023-04-20T11:29:43.438Z,4.63
2023-04-20T11:32:57.022Z,4.50
2023-04-20T11:36:02.684Z,4.38
2023-04-20T11:39:14.134Z,4.18
2023-04-20T11:42:19.745Z,4.82
2023-04-20T11:45:25.182Z,5.40
2023-04-20T11:48:33.423Z,5.25
2023-04-20T11:51:38.565Z,5.05
2023-04-20T11:54:43.972Z,4.72
2023-04-20T11:57:50.394Z,4.35
2023-04-20T12:00:56.065Z,4.47
2023-04-20T12:04:04.374Z,4.70
2023-04-20T12:07:10.495Z,4.88
2023-04-20T12:10:15.830Z,4.88
2023-04-20T12:13:21.410Z,4.38
2023-04-20T12:16:26.921Z,4.90
2023-04-20T12:19:35.155Z,4.47
2023-04-20T12:22:40.274Z,4.55
2023-04-20T12:25:46.495Z,4.95
2023-04-20T12:28:51.717Z,4.90
2023-04-20T12:31:57.350Z,4.72
2023-04-20T12:35:05.281Z,4.55
2023-04-20T12:38:13.317Z,4.10
2023-04-20T12:41:20.204Z,4.40
2023-04-20T12:44:25.495Z,4.80
2023-04-20T12:47:33.226Z,4.32
2023-04-20T12:50:41.421Z,4.90
2023-04-20T12:53:46.646Z,4.28
2023-04-20T12:56:52.037Z,5.20
2023-04-20T12:59:57.450Z,5.28
2023-04-20T13:03:02.919Z,4.65
2023-04-20T13:06:13.588Z,4.28
2023-04-20T13:09:20.053Z,5.03
2023-04-20T13:12:25.671Z,4.80
2023-04-20T13:15:39.253Z,4.82
2023-04-20T13:18:45.129Z,4.93
2023-04-20T13:21:53.319Z,4.63
2023-04-20T13:24:58.515Z,4.70
2023-04-20T13:28:05.330Z,4.78
2023-04-20T13:31:12.008Z,4.65
2023-04-20T13:34:17.822Z,4.55
2023-04-20T13:37:25.938Z,4.70
2023-04-20T13:40:31.516Z,4.85
2023-04-20T13:43:36.807Z,4.85
2023-04-20T13:46:42.385Z,4.45
2023-04-20T13:49:47.822Z,4.45
2023-04-20T13:52:55.676Z,4.75
2023-04-20T13:56:01.220Z,4.32
2023-04-20T13:59:07.254Z,4.60
2023-04-20T14:02:12.886Z,4.53
2023-04-20T14:05:18.376Z,5.25
2023-04-20T14:08:26.486Z,4.70
2023-04-20T14:11:31.902Z,4.28
2023-04-20T14:14:37.178Z,4.70
2023-04-20T14:17:42.775Z,4.68
2023-04-20T14:20:52.514Z,5.10
2023-04-20T14:24:00.545Z,4.50
2023-04-20T14:27:07.822Z,4.40
2023-04-20T14:30:13.783Z,4.30
2023-04-20T14:33:19.186Z,4.85
2023-04-20T14:36:24.533Z,4.85
2023-04-20T14:39:32.394Z,4.53
2023-04-20T14:42:37.977Z,4.80
2023-04-20T14:45:45.107Z,4.57
2023-04-20T14:48:50.348Z,5.70
2023-04-20T14:51:55.513Z,4.03
2023-04-20T14:55:03.790Z,4.30
2023-04-20T14:58:09.974Z,4.90
2023-04-20T15:01:16.016Z,3.92
2023-04-20T15:04:21.905Z,4.57
2023-04-20T15:07:28.792Z,4.00
2023-04-20T15:10:38.182Z,4.50
2023-04-20T15:13:44.069Z,3.88
2023-04-20T15:16:52.305Z,4.75
2023-04-20T15:19:57.832Z,4.43
2023-04-20T15:23:03.363Z,4.20
2023-04-20T15:26:11.564Z,3.92
2023-04-20T15:32:21.992Z,4.10
2023-04-20T15:35:27.995Z,4.20
2023-04-20T15:38:33.311Z,4.38
2023-04-20T15:41:41.325Z,4.95
2023-04-20T15:44:46.905Z,4.38
2023-04-20T15:47:52.235Z,4.35
2023-04-20T15:50:57.931Z,4.25
2023-04-20T15:54:03.556Z,4.05
2023-04-20T15:57:11.408Z,4.53
2023-04-20T16:03:22.649Z,4.10
2023-04-20T16:06:28.363Z,4.22
2023-04-20T16:09:33.863Z,4.32
2023-04-20T16:12:41.798Z,4.03
2023-04-20T16:15:47.310Z,4.45
2023-04-20T16:18:52.586Z,3.92
2023-04-20T16:21:58.008Z,3.95
2023-04-20T16:25:03.638Z,4.55
2023-04-20T16:28:11.966Z,4.80
2023-04-20T16:31:17.328Z,4.28
2023-04-20T16:34:25.005Z,4.78
2023-04-20T16:37:33.889Z,5.28
2023-04-20T16:40:39.260Z,4.30
2023-04-20T16:43:47.149Z,4.22
2023-04-20T16:46:53.415Z,5.15
2023-04-20T16:49:58.819Z,4.75
2023-04-20T16:53:04.482Z,4.88
2023-04-20T16:56:11.494Z,4.07
2023-04-20T16:59:20.004Z,6.43
2023-04-20T17:02:25.985Z,4.32
2023-04-20T17:05:31.279Z,4.93
2023-04-20T17:08:37.987Z,5.07
2023-04-20T17:11:43.528Z,4.70
2023-04-20T17:14:51.637Z,4.90
2023-04-20T17:17:56.769Z,5.05
2023-04-20T17:21:03.991Z,5.22
2023-04-20T17:24:09.671Z,5.63
2023-04-20T17:27:19.223Z,4.85
2023-04-20T17:30:27.066Z,5.88
2023-04-20T17:33:32.530Z,5.00
2023-04-20T17:36:37.816Z,5.13
2023-04-20T17:39:43.233Z,5.60
2023-04-20T17:42:48.588Z,4.68
2023-04-20T17:45:58.949Z,4.63
2023-04-20T17:49:04.282Z,5.03
2023-04-20T17:52:09.836Z,5.18
2023-04-20T17:55:15.240Z,4.88
2023-04-20T17:58:20.975Z,5.20
2023-04-20T18:01:28.847Z,5.68
2023-04-20T18:04:34.631Z,5.30
2023-04-20T18:07:40.104Z,5.35
2023-04-20T18:10:45.514Z,5.40
2023-04-20T18:13:50.709Z,6.28
2023-04-20T18:16:58.985Z,6.55
2023-04-20T18:20:05.962Z,5.63
2023-04-20T18:23:14.032Z,5.78
2023-04-20T18:26:20.835Z,5.93
2023-04-20T18:29:26.758Z,5.63
2023-04-20T18:32:36.582Z,5.97
2023-04-20T18:35:41.797Z,6.25
2023-04-20T18:38:47.381Z,6.22
2023-04-20T18:41:52.496Z,5.88
2023-04-20T18:44:58.232Z,6.85
2023-04-20T18:48:06.876Z,8.07
2023-04-20T18:51:12.392Z,7.32
2023-04-20T18:54:18.319Z,8.00
2023-04-20T18:57:26.743Z,8.32
2023-04-20T19:00:32.533Z,7.35
2023-04-20T19:03:40.509Z,7.57
2023-04-20T19:06:46.366Z,6.57
2023-04-20T19:09:51.440Z,8.00
2023-04-20T19:12:58.569Z,7.22
2023-04-20T19:16:04.980Z,6.82
2023-04-20T19:19:13.316Z,5.82
2023-04-20T19:22:18.578Z,6.82
2023-04-20T19:25:24.252Z,5.80
2023-04-20T19:28:29.647Z,5.90
2023-04-20T19:31:37.997Z,5.70
2023-04-20T19:34:45.847Z,5.68
2023-04-20T19:37:51.036Z,5.68
2023-04-20T19:40:56.657Z,6.05
2023-04-20T19:44:05.058Z,5.93
2023-04-20T19:47:10.802Z,5.50
2023-04-20T19:50:18.866Z,5.88
2023-04-20T19:53:25.484Z,5.22
2023-04-20T19:56:31.031Z,4.78
2023-04-20T19:59:38.105Z,4.97
2023-04-20T20:02:43.824Z,5.60
2023-04-20T20:05:51.986Z,6.45
2023-04-20T20:08:57.343Z,4.97
2023-04-20T20:12:05.064Z,4.80
2023-04-20T20:15:11.002Z,4.97
2023-04-20T20:18:16.492Z,5.03
2023-04-20T20:21:24.859Z,5.25
2023-04-20T20:24:30.400Z,5.43
2023-04-20T20:27:35.854Z,4.80
2023-04-20T20:30:41.803Z,5.03
2023-04-20T20:33:47.365Z,4.35
2023-04-20T20:36:55.367Z,4.45
2023-04-20T20:40:00.803Z,4.93
2023-04-20T20:43:08.946Z,4.00
2023-04-20T20:46:14.600Z,5.82
2023-04-20T20:49:20.191Z,4.25
2023-04-20T20:52:28.409Z,4.57
2023-04-20T20:55:33.585Z,4.90
2023-04-20T20:58:39.054Z,5.20
2023-04-20T21:01:44.636Z,4.38
2023-04-20T21:04:50.227Z,5.00
2023-04-20T21:07:58.527Z,4.47
2023-04-20T21:11:04.461Z,5.38
2023-04-20T21:14:09.872Z,5.10
2023-04-20T21:17:15.142Z,5.15
2023-04-20T21:20:20.568Z,5.55
2023-04-20T21:23:28.375Z,5.50
2023-04-20T21:26:36.340Z,5.30
2023-04-20T21:29:41.607Z,5.43
2023-04-20T21:32:47.351Z,5.68
2023-04-20T21:35:52.555Z,5.93
2023-04-20T21:39:00.749Z,5.35
2023-04-20T21:42:06.243Z,5.60
2023-04-20T21:45:12.321Z,6.18
2023-04-20T21:48:17.470Z,5.72
2023-04-20T21:51:22.881Z,5.68
2023-04-20T21:54:32.103Z,5.40
2023-04-20T21:57:39.571Z,5.00
2023-04-20T22:00:45.156Z,5.80
2023-04-20T22:03:50.868Z,4.90
2023-04-20T22:06:56.797Z,5.00
2023-04-20T22:10:04.703Z,5.13
2023-04-20T22:13:10.131Z,5.00
2023-04-20T22:16:15.716Z,4.75
2023-04-20T22:19:21.700Z,5.20
2023-04-20T22:22:27.067Z,5.57
2023-04-20T22:25:35.162Z,5.07
2023-04-20T22:28:40.335Z,5.00
2023-04-20T22:31:45.821Z,5.15
2023-04-20T22:34:51.257Z,4.60
2023-04-20T22:37:56.718Z,4.45
2023-04-20T22:41:04.457Z,4.95
2023-04-20T22:44:10.136Z,4.90
2023-04-20T22:47:15.248Z,4.80
2023-04-20T22:50:20.839Z,4.60
2023-04-20T22:53:26.044Z,4.85
2023-04-20T22:56:35.609Z,4.53
2023-04-20T22:59:41.234Z,4.32
2023-04-20T23:02:46.807Z,5.30
2023-04-20T23:05:52.434Z,5.35
2023-04-20T23:08:59.414Z,5.40
2023-04-20T23:12:09.031Z,4.53
2023-04-20T23:15:14.728Z,5.47
2023-04-20T23:18:20.577Z,5.38
2023-04-20T23:21:25.815Z,5.50
2023-04-20T23:24:31.407Z,5.32
2023-04-20T23:27:39.616Z,5.65
2023-04-20T23:30:45.126Z,5.85
2023-04-20T23:33:50.656Z,5.10
2023-04-20T23:36:56.191Z,4.97
2023-04-20T23:40:01.527Z,5.22
2023-04-20T23:43:11.229Z,6.25
2023-04-20T23:46:17.397Z,9.02
2023-04-20T23:49:22.728Z,6.20
2023-04-20T23:52:28.216Z,5.65
2023-04-20T23:55:33.644Z,5.70
2023-04-20T23:58:41.796Z,5.28
